sensor_id;sensor_type;location;lat;lon;timestamp;temperature;humidity
10968;DHT22;5536;49.602;10.980;2024-01-10T00:00:49;-4.40;99.90
10968;DHT22;5536;49.602;10.980;2024-01-10T00:03:16;-4.40;99.90
10968;DHT22;5536;49.602;10.980;2024-01-10T00:05:43;-4.20;99.90
10968;DHT22;5536;49.602;10.980;2024-01-10T00:08:10;-4.00;99.90
10968;DHT22;5536;49.602;10.980;2024-01-10T00:10:37;-4.10;99.90
10968;DHT22;5536;49.602;10.980;2024-01-10T00:13:06;-4.00;99.90
10968;DHT22;5536;49.602;10.980;2024-01-10T00:15:33;-3.90;99.90
10968;DHT22;5536;49.602;10.980;2024-01-10T00:18:01;-3.80;99.90
10968;DHT22;5536;49.602;10.980;2024-01-10T00:20:28;-3.80;99.90
10968;DHT22;5536;49.602;10.980;2024-01-10T00:22:55;-3.80;99.90
10968;DHT22;5536;49.602;10.980;2024-01-10T00:25:22;-3.90;99.90
10968;DHT22;5536;49.602;10.980;2024-01-10T00:27:50;-4.00;99.90
10968;DHT22;5536;49.602;10.980;2024-01-10T00:30:18;-3.80;99.90
10968;DHT22;5536;49.602;10.980;2024-01-10T00:32:45;-3.70;99.90
10968;DHT22;5536;49.602;10.980;2024-01-10T00:35:12;-3.80;99.90
10968;DHT22;5536;49.602;10.980;2024-01-10T00:37:40;-3.70;99.90
10968;DHT22;5536;49.602;10.980;2024-01-10T00:40:07;-3.80;99.90
10968;DHT22;5536;49.602;10.980;2024-01-10T00:42:35;-3.70;99.90
10968;DHT22;5536;49.602;10.980;2024-01-10T00:45:02;-3.70;99.90
10968;DHT22;5536;49.602;10.980;2024-01-10T00:47:32;-3.80;99.90
10968;DHT22;5536;49.602;10.980;2024-01-10T00:49:59;-3.80;99.90
10968;DHT22;5536;49.602;10.980;2024-01-10T00:52:26;-3.90;99.90
10968;DHT22;5536;49.602;10.980;2024-01-10T00:54:53;-3.80;99.90
10968;DHT22;5536;49.602;10.980;2024-01-10T00:57:20;-3.70;99.90
10968;DHT22;5536;49.602;10.980;2024-01-10T00:59:47;-3.80;99.90
10968;DHT22;5536;49.602;10.980;2024-01-10T01:02:14;-3.80;99.90
10968;DHT22;5536;49.602;10.980;2024-01-10T01:04:43;-3.70;99.90
10968;DHT22;5536;49.602;10.980;2024-01-10T01:07:10;-3.70;99.90
10968;DHT22;5536;49.602;10.980;2024-01-10T01:09:37;-3.70;99.90
10968;DHT22;5536;49.602;10.980;2024-01-10T01:12:05;-3.60;99.90
10968;DHT22;5536;49.602;10.980;2024-01-10T01:14:32;-3.60;99.90
10968;DHT22;5536;49.602;10.980;2024-01-10T01:16:59;-3.60;99.90
10968;DHT22;5536;49.602;10.980;2024-01-10T01:19:26;-3.60;99.90
10968;DHT22;5536;49.602;10.980;2024-01-10T01:21:55;-3.60;99.90
10968;DHT22;5536;49.602;10.980;2024-01-10T01:24:22;-3.40;99.90
10968;DHT22;5536;49.602;10.980;2024-01-10T01:26:49;-3.40;99.90
10968;DHT22;5536;49.602;10.980;2024-01-10T01:29:16;-3.50;99.90
10968;DHT22;5536;49.602;10.980;2024-01-10T01:31:43;-3.50;99.90
10968;DHT22;5536;49.602;10.980;2024-01-10T01:34:11;-3.50;99.90
10968;DHT22;5536;49.602;10.980;2024-01-10T01:36:38;-3.50;99.90
10968;DHT22;5536;49.602;10.980;2024-01-10T01:39:06;-3.60;99.90
10968;DHT22;5536;49.602;10.980;2024-01-10T01:41:34;-3.70;99.90
10968;DHT22;5536;49.602;10.980;2024-01-10T01:44:01;-3.80;99.90
10968;DHT22;5536;49.602;10.980;2024-01-10T01:46:28;-3.90;99.90
10968;DHT22;5536;49.602;10.980;2024-01-10T01:48:56;-3.80;99.90
10968;DHT22;5536;49.602;10.980;2024-01-10T01:51:23;-3.80;99.90
10968;DHT22;5536;49.602;10.980;2024-01-10T01:53:51;-3.80;99.90
10968;DHT22;5536;49.602;10.980;2024-01-10T01:56:20;-3.80;99.90
10968;DHT22;5536;49.602;10.980;2024-01-10T01:58:49;-3.80;99.90
10968;DHT22;5536;49.602;10.980;2024-01-10T02:01:17;-3.80;99.90
10968;DHT22;5536;49.602;10.980;2024-01-10T02:03:47;-4.00;99.90
10968;DHT22;5536;49.602;10.980;2024-01-10T02:06:14;-3.90;99.90
10968;DHT22;5536;49.602;10.980;2024-01-10T02:08:41;-3.80;99.90
10968;DHT22;5536;49.602;10.980;2024-01-10T02:11:09;-3.90;99.90
10968;DHT22;5536;49.602;10.980;2024-01-10T02:13:37;-4.00;99.90
10968;DHT22;5536;49.602;10.980;2024-01-10T02:16:05;-3.80;99.90
10968;DHT22;5536;49.602;10.980;2024-01-10T02:18:33;-3.80;99.90
10968;DHT22;5536;49.602;10.980;2024-01-10T02:21:01;-3.80;99.90
10968;DHT22;5536;49.602;10.980;2024-01-10T02:23:28;-3.70;99.90
10968;DHT22;5536;49.602;10.980;2024-01-10T02:25:57;-3.70;99.90
10968;DHT22;5536;49.602;10.980;2024-01-10T02:28:24;-3.60;99.90
10968;DHT22;5536;49.602;10.980;2024-01-10T02:30:52;-3.60;99.90
10968;DHT22;5536;49.602;10.980;2024-01-10T02:33:21;-3.70;99.90
10968;DHT22;5536;49.602;10.980;2024-01-10T02:35:48;-3.80;99.90
10968;DHT22;5536;49.602;10.980;2024-01-10T02:38:15;-3.90;99.90
10968;DHT22;5536;49.602;10.980;2024-01-10T02:40:43;-3.90;99.90
10968;DHT22;5536;49.602;10.980;2024-01-10T02:43:11;-3.80;99.90
10968;DHT22;5536;49.602;10.980;2024-01-10T02:45:38;-4.00;99.90
10968;DHT22;5536;49.602;10.980;2024-01-10T02:48:06;-4.10;99.90
10968;DHT22;5536;49.602;10.980;2024-01-10T02:50:33;-4.00;99.90
10968;DHT22;5536;49.602;10.980;2024-01-10T02:53:00;-4.00;99.90
10968;DHT22;5536;49.602;10.980;2024-01-10T02:55:27;-4.00;99.90
10968;DHT22;5536;49.602;10.980;2024-01-10T02:57:54;-4.00;99.90
10968;DHT22;5536;49.602;10.980;2024-01-10T03:00:23;-3.90;99.90
10968;DHT22;5536;49.602;10.980;2024-01-10T03:02:50;-4.00;99.90
10968;DHT22;5536;49.602;10.980;2024-01-10T03:05:17;-3.90;99.90
10968;DHT22;5536;49.602;10.980;2024-01-10T03:07:44;-4.00;99.90
10968;DHT22;5536;49.602;10.980;2024-01-10T03:10:11;-4.10;99.90
10968;DHT22;5536;49.602;10.980;2024-01-10T03:12:38;-4.20;99.90
10968;DHT22;5536;49.602;10.980;2024-01-10T03:15:06;-4.20;99.90
10968;DHT22;5536;49.602;10.980;2024-01-10T03:17:35;-4.40;99.90
10968;DHT22;5536;49.602;10.980;2024-01-10T03:20:03;-4.30;99.90
10968;DHT22;5536;49.602;10.980;2024-01-10T03:22:31;-4.30;99.90
10968;DHT22;5536;49.602;10.980;2024-01-10T03:24:58;-4.30;99.90
10968;DHT22;5536;49.602;10.980;2024-01-10T03:27:25;-4.40;99.90
10968;DHT22;5536;49.602;10.980;2024-01-10T03:29:52;-4.40;99.90
10968;DHT22;5536;49.602;10.980;2024-01-10T03:32:19;-4.50;99.90
10968;DHT22;5536;49.602;10.980;2024-01-10T03:34:48;-4.70;99.90
10968;DHT22;5536;49.602;10.980;2024-01-10T03:37:17;-4.70;99.90
10968;DHT22;5536;49.602;10.980;2024-01-10T03:39:44;-4.60;99.90
10968;DHT22;5536;49.602;10.980;2024-01-10T03:42:11;-4.50;99.90
10968;DHT22;5536;49.602;10.980;2024-01-10T03:44:38;-4.40;99.90
10968;DHT22;5536;49.602;10.980;2024-01-10T03:47:06;-4.60;99.90
10968;DHT22;5536;49.602;10.980;2024-01-10T03:49:33;-4.70;99.90
10968;DHT22;5536;49.602;10.980;2024-01-10T03:52:01;-4.80;99.90
10968;DHT22;5536;49.602;10.980;2024-01-10T03:54:28;-4.80;99.90
10968;DHT22;5536;49.602;10.980;2024-01-10T03:56:55;-4.60;99.90
10968;DHT22;5536;49.602;10.980;2024-01-10T03:59:22;-4.60;99.90
10968;DHT22;5536;49.602;10.980;2024-01-10T04:01:50;-4.80;99.90
10968;DHT22;5536;49.602;10.980;2024-01-10T04:04:17;-4.90;99.90
10968;DHT22;5536;49.602;10.980;2024-01-10T04:06:44;-4.90;99.90
10968;DHT22;5536;49.602;10.980;2024-01-10T04:09:13;-4.60;99.90
10968;DHT22;5536;49.602;10.980;2024-01-10T04:11:40;-4.50;99.90
10968;DHT22;5536;49.602;10.980;2024-01-10T04:14:07;-4.40;99.90
10968;DHT22;5536;49.602;10.980;2024-01-10T04:16:34;-4.40;99.90
10968;DHT22;5536;49.602;10.980;2024-01-10T04:19:01;-4.60;99.90
10968;DHT22;5536;49.602;10.980;2024-01-10T04:21:29;-4.60;99.90
10968;DHT22;5536;49.602;10.980;2024-01-10T04:23:56;-4.60;99.90
10968;DHT22;5536;49.602;10.980;2024-01-10T04:26:24;-4.70;99.90
10968;DHT22;5536;49.602;10.980;2024-01-10T04:28:51;-4.80;99.90
10968;DHT22;5536;49.602;10.980;2024-01-10T04:31:19;-4.90;99.90
10968;DHT22;5536;49.602;10.980;2024-01-10T04:33:46;-5.00;99.90
10968;DHT22;5536;49.602;10.980;2024-01-10T04:36:13;-5.00;99.90
10968;DHT22;5536;49.602;10.980;2024-01-10T04:38:40;-4.90;99.90
10968;DHT22;5536;49.602;10.980;2024-01-10T04:41:07;-4.60;99.90
10968;DHT22;5536;49.602;10.980;2024-01-10T04:43:36;-4.60;99.90
10968;DHT22;5536;49.602;10.980;2024-01-10T04:46:04;-4.90;99.90
10968;DHT22;5536;49.602;10.980;2024-01-10T04:48:31;-4.90;99.90
10968;DHT22;5536;49.602;10.980;2024-01-10T04:50:58;-4.80;99.90
10968;DHT22;5536;49.602;10.980;2024-01-10T04:53:25;-4.60;99.90
10968;DHT22;5536;49.602;10.980;2024-01-10T04:55:52;-4.60;99.90
10968;DHT22;5536;49.602;10.980;2024-01-10T04:58:20;-4.50;99.90
10968;DHT22;5536;49.602;10.980;2024-01-10T05:00:48;-4.50;99.90
10968;DHT22;5536;49.602;10.980;2024-01-10T05:03:16;-4.50;99.90
10968;DHT22;5536;49.602;10.980;2024-01-10T05:05:43;-4.40;99.90
10968;DHT22;5536;49.602;10.980;2024-01-10T05:08:10;-4.40;99.90
10968;DHT22;5536;49.602;10.980;2024-01-10T05:10:37;-4.40;99.90
10968;DHT22;5536;49.602;10.980;2024-01-10T05:13:04;-4.40;99.90
10968;DHT22;5536;49.602;10.980;2024-01-10T05:15:31;-4.40;99.90
10968;DHT22;5536;49.602;10.980;2024-01-10T05:18:00;-4.40;99.90
10968;DHT22;5536;49.602;10.980;2024-01-10T05:20:28;-4.50;99.90
10968;DHT22;5536;49.602;10.980;2024-01-10T05:22:55;-4.40;99.90
10968;DHT22;5536;49.602;10.980;2024-01-10T05:25:24;-4.50;99.90
10968;DHT22;5536;49.602;10.980;2024-01-10T05:27:52;-4.50;99.90
10968;DHT22;5536;49.602;10.980;2024-01-10T05:30:20;-4.60;99.90
10968;DHT22;5536;49.602;10.980;2024-01-10T05:32:47;-4.70;99.90
10968;DHT22;5536;49.602;10.980;2024-01-10T05:35:16;-4.90;99.90
10968;DHT22;5536;49.602;10.980;2024-01-10T05:37:43;-4.80;99.90
10968;DHT22;5536;49.602;10.980;2024-01-10T05:40:11;-4.70;99.90
10968;DHT22;5536;49.602;10.980;2024-01-10T05:42:38;-4.60;99.90
10968;DHT22;5536;49.602;10.980;2024-01-10T05:45:06;-4.60;99.90
10968;DHT22;5536;49.602;10.980;2024-01-10T05:47:33;-4.60;99.90
10968;DHT22;5536;49.602;10.980;2024-01-10T05:50:00;-4.60;99.90
10968;DHT22;5536;49.602;10.980;2024-01-10T05:52:30;-4.50;99.90
10968;DHT22;5536;49.602;10.980;2024-01-10T05:54:57;-4.50;99.90
10968;DHT22;5536;49.602;10.980;2024-01-10T05:57:27;-4.70;99.90
10968;DHT22;5536;49.602;10.980;2024-01-10T05:59:54;-4.70;99.90
10968;DHT22;5536;49.602;10.980;2024-01-10T06:02:22;-4.70;99.90
10968;DHT22;5536;49.602;10.980;2024-01-10T06:04:50;-4.70;99.90
10968;DHT22;5536;49.602;10.980;2024-01-10T06:07:17;-4.60;99.90
10968;DHT22;5536;49.602;10.980;2024-01-10T06:09:47;-4.60;99.90
10968;DHT22;5536;49.602;10.980;2024-01-10T06:12:14;-4.70;99.90
10968;DHT22;5536;49.602;10.980;2024-01-10T06:14:41;-4.90;99.90
10968;DHT22;5536;49.602;10.980;2024-01-10T06:17:08;-5.10;99.90
10968;DHT22;5536;49.602;10.980;2024-01-10T06:19:35;-4.90;99.90
10968;DHT22;5536;49.602;10.980;2024-01-10T06:22:02;-4.70;99.90
10968;DHT22;5536;49.602;10.980;2024-01-10T06:24:30;-4.60;99.90
10968;DHT22;5536;49.602;10.980;2024-01-10T06:26:58;-4.60;99.90
10968;DHT22;5536;49.602;10.980;2024-01-10T06:29:25;-4.70;99.90
10968;DHT22;5536;49.602;10.980;2024-01-10T06:31:59;-5.00;99.90
10968;DHT22;5536;49.602;10.980;2024-01-10T06:34:29;-5.10;99.90
10968;DHT22;5536;49.602;10.980;2024-01-10T06:36:56;-5.10;99.90
10968;DHT22;5536;49.602;10.980;2024-01-10T06:39:23;-5.20;99.90
10968;DHT22;5536;49.602;10.980;2024-01-10T06:41:50;-5.10;99.90
10968;DHT22;5536;49.602;10.980;2024-01-10T06:44:19;-5.10;99.90
10968;DHT22;5536;49.602;10.980;2024-01-10T06:46:46;-5.00;99.90
10968;DHT22;5536;49.602;10.980;2024-01-10T06:49:13;-5.00;99.90
10968;DHT22;5536;49.602;10.980;2024-01-10T06:51:40;-4.80;99.90
10968;DHT22;5536;49.602;10.980;2024-01-10T06:54:09;-4.80;99.90
10968;DHT22;5536;49.602;10.980;2024-01-10T06:56:36;-4.60;99.90
10968;DHT22;5536;49.602;10.980;2024-01-10T06:59:03;-4.70;99.90
10968;DHT22;5536;49.602;10.980;2024-01-10T07:01:32;-5.00;99.90
10968;DHT22;5536;49.602;10.980;2024-01-10T07:03:59;-5.00;99.90
10968;DHT22;5536;49.602;10.980;2024-01-10T07:06:26;-4.90;99.90
10968;DHT22;5536;49.602;10.980;2024-01-10T07:08:53;-4.80;99.90
10968;DHT22;5536;49.602;10.980;2024-01-10T07:11:20;-4.80;99.90
10968;DHT22;5536;49.602;10.980;2024-01-10T07:13:47;-5.10;99.90
10968;DHT22;5536;49.602;10.980;2024-01-10T07:16:17;-5.10;99.90
10968;DHT22;5536;49.602;10.980;2024-01-10T07:18:46;-4.90;99.90
10968;DHT22;5536;49.602;10.980;2024-01-10T07:21:17;-4.80;99.90
10968;DHT22;5536;49.602;10.980;2024-01-10T07:23:44;-4.70;99.90
10968;DHT22;5536;49.602;10.980;2024-01-10T07:26:13;-4.70;99.90
10968;DHT22;5536;49.602;10.980;2024-01-10T07:28:42;-4.70;99.90
10968;DHT22;5536;49.602;10.980;2024-01-10T07:31:09;-4.60;99.90
10968;DHT22;5536;49.602;10.980;2024-01-10T07:33:38;-4.60;99.90
10968;DHT22;5536;49.602;10.980;2024-01-10T07:36:06;-4.60;99.90
10968;DHT22;5536;49.602;10.980;2024-01-10T07:38:34;-4.50;99.90
10968;DHT22;5536;49.602;10.980;2024-01-10T07:41:01;-4.40;99.90
10968;DHT22;5536;49.602;10.980;2024-01-10T07:43:28;-4.30;99.90
10968;DHT22;5536;49.602;10.980;2024-01-10T07:45:55;-4.30;99.90
10968;DHT22;5536;49.602;10.980;2024-01-10T07:48:22;-4.60;99.90
10968;DHT22;5536;49.602;10.980;2024-01-10T07:50:50;-4.80;99.90
10968;DHT22;5536;49.602;10.980;2024-01-10T07:53:19;-4.90;99.90
10968;DHT22;5536;49.602;10.980;2024-01-10T07:55:46;-5.00;99.90
10968;DHT22;5536;49.602;10.980;2024-01-10T07:58:13;-4.80;99.90
10968;DHT22;5536;49.602;10.980;2024-01-10T08:00:41;-4.60;99.90
10968;DHT22;5536;49.602;10.980;2024-01-10T08:03:08;-4.50;99.90
10968;DHT22;5536;49.602;10.980;2024-01-10T08:05:36;-4.30;99.90
10968;DHT22;5536;49.602;10.980;2024-01-10T08:08:03;-4.30;99.90
10968;DHT22;5536;49.602;10.980;2024-01-10T08:10:32;-4.20;99.90
10968;DHT22;5536;49.602;10.980;2024-01-10T08:12:59;-4.30;99.90
10968;DHT22;5536;49.602;10.980;2024-01-10T08:15:26;-4.20;99.90
10968;DHT22;5536;49.602;10.980;2024-01-10T08:17:56;-4.10;99.90
10968;DHT22;5536;49.602;10.980;2024-01-10T08:20:23;-4.00;99.90
10968;DHT22;5536;49.602;10.980;2024-01-10T08:22:50;-4.00;99.90
10968;DHT22;5536;49.602;10.980;2024-01-10T08:25:17;-4.00;99.90
10968;DHT22;5536;49.602;10.980;2024-01-10T08:27:46;-4.00;99.90
10968;DHT22;5536;49.602;10.980;2024-01-10T08:30:13;-3.90;99.90
10968;DHT22;5536;49.602;10.980;2024-01-10T08:32:40;-3.80;99.90
10968;DHT22;5536;49.602;10.980;2024-01-10T08:35:08;-3.70;99.90
10968;DHT22;5536;49.602;10.980;2024-01-10T08:37:35;-3.70;99.90
10968;DHT22;5536;49.602;10.980;2024-01-10T08:40:03;-3.60;99.90
10968;DHT22;5536;49.602;10.980;2024-01-10T08:42:35;-3.60;99.90
10968;DHT22;5536;49.602;10.980;2024-01-10T08:45:05;-3.40;99.90
10968;DHT22;5536;49.602;10.980;2024-01-10T08:47:35;-3.40;99.90
10968;DHT22;5536;49.602;10.980;2024-01-10T08:50:03;-3.40;99.90
10968;DHT22;5536;49.602;10.980;2024-01-10T08:52:34;-3.30;99.90
10968;DHT22;5536;49.602;10.980;2024-01-10T08:55:04;-3.30;99.90
10968;DHT22;5536;49.602;10.980;2024-01-10T08:57:31;-3.30;99.90
10968;DHT22;5536;49.602;10.980;2024-01-10T08:59:58;-3.30;99.90
10968;DHT22;5536;49.602;10.980;2024-01-10T09:02:27;-3.30;99.90
10968;DHT22;5536;49.602;10.980;2024-01-10T09:04:54;-3.20;99.90
10968;DHT22;5536;49.602;10.980;2024-01-10T09:07:21;-3.20;99.90
10968;DHT22;5536;49.602;10.980;2024-01-10T09:09:48;-3.10;99.90
10968;DHT22;5536;49.602;10.980;2024-01-10T09:12:15;-3.10;99.90
10968;DHT22;5536;49.602;10.980;2024-01-10T09:14:42;-3.10;99.90
10968;DHT22;5536;49.602;10.980;2024-01-10T09:17:09;-3.00;99.90
10968;DHT22;5536;49.602;10.980;2024-01-10T09:19:38;-2.90;99.90
10968;DHT22;5536;49.602;10.980;2024-01-10T09:22:06;-2.80;99.90
10968;DHT22;5536;49.602;10.980;2024-01-10T09:24:33;-2.80;99.90
10968;DHT22;5536;49.602;10.980;2024-01-10T09:27:01;-2.70;99.90
10968;DHT22;5536;49.602;10.980;2024-01-10T09:29:28;-2.60;99.90
10968;DHT22;5536;49.602;10.980;2024-01-10T09:31:57;-2.60;99.90
10968;DHT22;5536;49.602;10.980;2024-01-10T09:34:24;-2.50;99.90
10968;DHT22;5536;49.602;10.980;2024-01-10T09:36:52;-2.50;99.90
10968;DHT22;5536;49.602;10.980;2024-01-10T09:39:19;-2.50;99.90
10968;DHT22;5536;49.602;10.980;2024-01-10T09:41:48;-2.40;99.90
10968;DHT22;5536;49.602;10.980;2024-01-10T09:44:17;-2.30;99.90
10968;DHT22;5536;49.602;10.980;2024-01-10T09:46:47;-2.30;99.90
10968;DHT22;5536;49.602;10.980;2024-01-10T09:49:16;-2.20;99.90
10968;DHT22;5536;49.602;10.980;2024-01-10T09:51:45;-2.20;99.90
10968;DHT22;5536;49.602;10.980;2024-01-10T09:54:16;-2.10;99.90
10968;DHT22;5536;49.602;10.980;2024-01-10T09:56:45;-2.10;99.90
10968;DHT22;5536;49.602;10.980;2024-01-10T09:59:12;-2.00;99.90
10968;DHT22;5536;49.602;10.980;2024-01-10T10:01:39;-2.00;99.90
10968;DHT22;5536;49.602;10.980;2024-01-10T10:04:07;-2.00;99.90
10968;DHT22;5536;49.602;10.980;2024-01-10T10:06:36;-1.90;99.90
10968;DHT22;5536;49.602;10.980;2024-01-10T10:09:03;-1.90;99.90
10968;DHT22;5536;49.602;10.980;2024-01-10T10:11:32;-1.90;99.90
10968;DHT22;5536;49.602;10.980;2024-01-10T10:14:14;-1.80;99.90
10968;DHT22;5536;49.602;10.980;2024-01-10T10:16:41;-1.70;99.90
10968;DHT22;5536;49.602;10.980;2024-01-10T10:19:08;-1.60;99.90
10968;DHT22;5536;49.602;10.980;2024-01-10T10:21:37;-1.50;99.90
10968;DHT22;5536;49.602;10.980;2024-01-10T10:24:05;-1.40;99.90
10968;DHT22;5536;49.602;10.980;2024-01-10T10:26:34;-1.30;99.90
10968;DHT22;5536;49.602;10.980;2024-01-10T10:29:01;-1.10;99.90
10968;DHT22;5536;49.602;10.980;2024-01-10T10:31:29;-1.00;99.90
10968;DHT22;5536;49.602;10.980;2024-01-10T10:33:59;-0.90;99.90
10968;DHT22;5536;49.602;10.980;2024-01-10T10:36:29;-0.80;99.90
10968;DHT22;5536;49.602;10.980;2024-01-10T10:38:59;-0.60;99.90
10968;DHT22;5536;49.602;10.980;2024-01-10T10:41:31;-0.60;99.90
10968;DHT22;5536;49.602;10.980;2024-01-10T10:44:01;-0.50;99.90
10968;DHT22;5536;49.602;10.980;2024-01-10T10:46:32;-0.40;99.90
10968;DHT22;5536;49.602;10.980;2024-01-10T10:49:05;-0.40;99.90
10968;DHT22;5536;49.602;10.980;2024-01-10T10:51:34;-0.30;99.90
10968;DHT22;5536;49.602;10.980;2024-01-10T10:54:03;-0.20;99.90
10968;DHT22;5536;49.602;10.980;2024-01-10T10:56:33;-0.10;99.90
10968;DHT22;5536;49.602;10.980;2024-01-10T10:59:03;0.00;99.90
10968;DHT22;5536;49.602;10.980;2024-01-10T11:01:31;0.00;99.90
10968;DHT22;5536;49.602;10.980;2024-01-10T11:03:59;0.20;99.90
10968;DHT22;5536;49.602;10.980;2024-01-10T11:06:27;0.30;99.90
10968;DHT22;5536;49.602;10.980;2024-01-10T11:08:59;0.40;99.90
10968;DHT22;5536;49.602;10.980;2024-01-10T11:15:09;0.60;99.90
10968;DHT22;5536;49.602;10.980;2024-01-10T11:18:02;0.80;99.90
10968;DHT22;5536;49.602;10.980;2024-01-10T11:20:56;1.00;99.90
10968;DHT22;5536;49.602;10.980;2024-01-10T11:23:44;1.10;99.90
10968;DHT22;5536;49.602;10.980;2024-01-10T11:26:15;1.30;99.90
10968;DHT22;5536;49.602;10.980;2024-01-10T11:28:42;1.40;99.90
10968;DHT22;5536;49.602;10.980;2024-01-10T11:31:13;1.40;99.90
10968;DHT22;5536;49.602;10.980;2024-01-10T11:33:41;1.60;99.90
10968;DHT22;5536;49.602;10.980;2024-01-10T11:36:14;1.70;99.90
10968;DHT22;5536;49.602;10.980;2024-01-10T11:38:48;1.80;99.90
10968;DHT22;5536;49.602;10.980;2024-01-10T11:41:21;1.90;99.90
10968;DHT22;5536;49.602;10.980;2024-01-10T11:44:28;2.00;99.90
10968;DHT22;5536;49.602;10.980;2024-01-10T11:46:58;2.40;99.90
10968;DHT22;5536;49.602;10.980;2024-01-10T11:49:26;2.50;99.90
10968;DHT22;5536;49.602;10.980;2024-01-10T11:51:54;2.50;99.90
10968;DHT22;5536;49.602;10.980;2024-01-10T11:54:49;2.60;99.90
10968;DHT22;5536;49.602;10.980;2024-01-10T11:57:21;2.90;99.90
10968;DHT22;5536;49.602;10.980;2024-01-10T12:02:20;3.30;99.90
10968;DHT22;5536;49.602;10.980;2024-01-10T12:04:47;3.10;99.90
10968;DHT22;5536;49.602;10.980;2024-01-10T12:07:16;3.20;99.90
10968;DHT22;5536;49.602;10.980;2024-01-10T12:09:43;3.60;99.90
10968;DHT22;5536;49.602;10.980;2024-01-10T12:12:12;3.60;99.90
10968;DHT22;5536;49.602;10.980;2024-01-10T12:14:40;3.90;99.90
10968;DHT22;5536;49.602;10.980;2024-01-10T12:17:07;4.20;99.90
10968;DHT22;5536;49.602;10.980;2024-01-10T12:19:36;4.20;99.90
10968;DHT22;5536;49.602;10.980;2024-01-10T12:22:03;4.20;99.90
10968;DHT22;5536;49.602;10.980;2024-01-10T12:24:31;4.50;99.90
10968;DHT22;5536;49.602;10.980;2024-01-10T12:26:59;4.60;99.90
10968;DHT22;5536;49.602;10.980;2024-01-10T12:29:26;4.80;99.90
10968;DHT22;5536;49.602;10.980;2024-01-10T12:31:53;4.80;99.90
10968;DHT22;5536;49.602;10.980;2024-01-10T12:34:21;4.70;99.90
10968;DHT22;5536;49.602;10.980;2024-01-10T12:36:54;4.60;99.90
10968;DHT22;5536;49.602;10.980;2024-01-10T12:39:22;4.60;99.90
10968;DHT22;5536;49.602;10.980;2024-01-10T12:41:51;4.60;99.90
10968;DHT22;5536;49.602;10.980;2024-01-10T12:44:18;4.70;99.90
10968;DHT22;5536;49.602;10.980;2024-01-10T12:46:51;5.10;99.90
10968;DHT22;5536;49.602;10.980;2024-01-10T12:49:19;5.10;99.90
10968;DHT22;5536;49.602;10.980;2024-01-10T12:51:47;5.40;99.90
10968;DHT22;5536;49.602;10.980;2024-01-10T12:54:16;5.40;99.90
10968;DHT22;5536;49.602;10.980;2024-01-10T12:56:44;5.50;99.90
10968;DHT22;5536;49.602;10.980;2024-01-10T12:59:11;5.50;99.90
10968;DHT22;5536;49.602;10.980;2024-01-10T13:01:39;5.50;99.90
10968;DHT22;5536;49.602;10.980;2024-01-10T13:04:07;5.50;99.90
10968;DHT22;5536;49.602;10.980;2024-01-10T13:06:34;5.40;99.90
10968;DHT22;5536;49.602;10.980;2024-01-10T13:09:01;5.30;99.90
10968;DHT22;5536;49.602;10.980;2024-01-10T13:11:31;5.50;99.90
10968;DHT22;5536;49.602;10.980;2024-01-10T13:13:58;5.30;99.90
10968;DHT22;5536;49.602;10.980;2024-01-10T13:16:26;5.50;99.90
10968;DHT22;5536;49.602;10.980;2024-01-10T13:18:53;5.80;99.90
10968;DHT22;5536;49.602;10.980;2024-01-10T13:21:22;6.00;99.90
10968;DHT22;5536;49.602;10.980;2024-01-10T13:23:50;6.40;99.90
10968;DHT22;5536;49.602;10.980;2024-01-10T13:26:17;6.50;99.90
10968;DHT22;5536;49.602;10.980;2024-01-10T13:28:46;6.10;99.90
10968;DHT22;5536;49.602;10.980;2024-01-10T13:31:13;6.30;99.90
10968;DHT22;5536;49.602;10.980;2024-01-10T13:33:41;6.60;99.90
10968;DHT22;5536;49.602;10.980;2024-01-10T13:36:08;6.50;99.90
10968;DHT22;5536;49.602;10.980;2024-01-10T13:38:35;6.30;99.90
10968;DHT22;5536;49.602;10.980;2024-01-10T13:41:03;6.20;99.90
10968;DHT22;5536;49.602;10.980;2024-01-10T13:43:31;6.00;99.90
10968;DHT22;5536;49.602;10.980;2024-01-10T13:45:59;5.90;99.90
10968;DHT22;5536;49.602;10.980;2024-01-10T13:48:29;6.00;99.90
10968;DHT22;5536;49.602;10.980;2024-01-10T13:50:56;6.10;99.90
10968;DHT22;5536;49.602;10.980;2024-01-10T13:53:24;5.80;99.90
10968;DHT22;5536;49.602;10.980;2024-01-10T13:55:52;5.40;99.90
10968;DHT22;5536;49.602;10.980;2024-01-10T13:58:19;5.20;99.90
10968;DHT22;5536;49.602;10.980;2024-01-10T14:00:49;4.80;99.90
10968;DHT22;5536;49.602;10.980;2024-01-10T14:03:21;4.40;99.90
10968;DHT22;5536;49.602;10.980;2024-01-10T14:05:49;4.10;99.90
10968;DHT22;5536;49.602;10.980;2024-01-10T14:08:17;3.90;99.90
10968;DHT22;5536;49.602;10.980;2024-01-10T14:10:47;3.30;99.90
10968;DHT22;5536;49.602;10.980;2024-01-10T14:13:14;3.10;99.90
10968;DHT22;5536;49.602;10.980;2024-01-10T14:15:43;2.80;99.90
10968;DHT22;5536;49.602;10.980;2024-01-10T14:18:11;2.70;99.90
10968;DHT22;5536;49.602;10.980;2024-01-10T14:20:42;2.40;99.90
10968;DHT22;5536;49.602;10.980;2024-01-10T14:23:12;2.30;99.90
10968;DHT22;5536;49.602;10.980;2024-01-10T14:25:39;2.20;99.90
10968;DHT22;5536;49.602;10.980;2024-01-10T14:28:08;2.10;99.90
10968;DHT22;5536;49.602;10.980;2024-01-10T14:30:35;2.00;99.90
10968;DHT22;5536;49.602;10.980;2024-01-10T14:33:04;1.90;99.90
10968;DHT22;5536;49.602;10.980;2024-01-10T14:35:31;1.80;99.90
10968;DHT22;5536;49.602;10.980;2024-01-10T14:38:01;1.70;99.90
10968;DHT22;5536;49.602;10.980;2024-01-10T14:40:29;1.60;99.90
10968;DHT22;5536;49.602;10.980;2024-01-10T14:42:58;1.60;99.90
10968;DHT22;5536;49.602;10.980;2024-01-10T14:45:25;1.60;99.90
10968;DHT22;5536;49.602;10.980;2024-01-10T14:47:54;1.60;99.90
10968;DHT22;5536;49.602;10.980;2024-01-10T14:50:23;1.50;99.90
10968;DHT22;5536;49.602;10.980;2024-01-10T14:52:53;1.40;99.90
10968;DHT22;5536;49.602;10.980;2024-01-10T14:55:24;1.40;99.90
10968;DHT22;5536;49.602;10.980;2024-01-10T14:57:55;1.40;99.90
10968;DHT22;5536;49.602;10.980;2024-01-10T15:00:22;1.30;99.90
10968;DHT22;5536;49.602;10.980;2024-01-10T15:02:50;1.30;99.90
10968;DHT22;5536;49.602;10.980;2024-01-10T15:05:18;1.30;99.90
10968;DHT22;5536;49.602;10.980;2024-01-10T15:07:46;1.30;99.90
10968;DHT22;5536;49.602;10.980;2024-01-10T15:10:13;1.20;99.90
10968;DHT22;5536;49.602;10.980;2024-01-10T15:12:42;1.10;99.90
10968;DHT22;5536;49.602;10.980;2024-01-10T15:15:10;1.20;99.90
10968;DHT22;5536;49.602;10.980;2024-01-10T15:17:37;1.10;99.90
10968;DHT22;5536;49.602;10.980;2024-01-10T15:20:05;1.10;99.90
10968;DHT22;5536;49.602;10.980;2024-01-10T15:22:34;1.10;99.90
10968;DHT22;5536;49.602;10.980;2024-01-10T15:25:04;1.00;99.90
10968;DHT22;5536;49.602;10.980;2024-01-10T15:27:32;0.90;99.90
10968;DHT22;5536;49.602;10.980;2024-01-10T15:30:01;0.90;99.90
10968;DHT22;5536;49.602;10.980;2024-01-10T15:32:30;1.00;99.90
10968;DHT22;5536;49.602;10.980;2024-01-10T15:34:57;0.90;99.90
10968;DHT22;5536;49.602;10.980;2024-01-10T15:37:29;0.90;99.90
10968;DHT22;5536;49.602;10.980;2024-01-10T15:39:57;0.80;99.90
10968;DHT22;5536;49.602;10.980;2024-01-10T15:42:38;0.70;99.90
10968;DHT22;5536;49.602;10.980;2024-01-10T15:45:23;0.70;99.90
10968;DHT22;5536;49.602;10.980;2024-01-10T15:47:54;0.60;99.90